الصفحة الرئيسية
METAR-TAF:

METAR-TAF

مطار :

نوميا, نيو كاليدونيا

دائرة عرض: 22-15-30S, خط طول: 166-28-22E, ارتفاع: 3 متر

METAR: مفقودة

زمن: 14:13 (03:13 UTC)

توقعات

تاريخ ووقت الإصدار 10ساعات و 13 دقيقة قبل الساعة 17:00UTC
التوقعات صالحة من26 الساعة 18 UTC إلى 27 الساعة 18 UTC
ريح 2 عقدةمن اتجاهات متغيرة
الرؤية 10 كم أو أكثر
غيوم قليلة على ارتفاع 3000 قدم
غيوم متفرقة على ارتفاع 5000 قدم
غيوم مفككة على ارتفاع 6500 قدم
نظرية الاحتمالات 30%
من 26 الساعة 18 UTC إلى 26 الساعة 21 UTC
غيوم مفككة على ارتفاع 1200 قدم
أصبح
من 26 الساعة 23 UTC إلى 26 الساعة 24 UTC
ريح 10 عقدة من الجنوب
نظرية الاحتمالات 30% :
مؤقت
من 26 الساعة 23 UTC إلى 27 الساعة 01 UTC
غيوم مفككة على ارتفاع 1200 قدم
غيوم قليلة على ارتفاع 2500 قدم, مزن ركامية عمودية.
زخات من المطر
مؤقت
من 27 الساعة 01 UTC إلى 27 الساعة 06 UTC
ريح 15 عقدة من الجنوب تتزايد حتى 25 عقدة

TAF: NWWM 261700Z 2618/2718 VRB02KT 9999 FEW030 SCT050 BKN065 PROB30 2618/2621 BKN012 BECMG 2623/2624 19010KT PROB30 TEMPO 2623/2701 SHRA BKN012 FEW025TCU TEMPO 2701/2706 19015G25KT

أرصاد الطقس والتوقعات من أكثر من 4000 مطار (تقارير الطقس للمطار METAR والتنبؤ بالطقس بالمطارTAF).

المحطات المتاحة هي النقط الصفراء والحمراء على الخريطة.

حرك المؤشر فوق النقطة لمعرفة اسم المحطة.

ثم انقر لمعرفة أرصاد وتوقعات الطقس.

لتغيير الخارطة: اضغط على الأزرار الخضراء مع رمز الصليب الأسود للتكبير. على الزر الأخضر مع شرطة للتصغير، أو على الأسهم الخضراء للخرائط المجاورة.


METAR-TAF: